sensor_id;sensor_type;location;lat;lon;timestamp;pressure;altitude;pressure_sealevel;temperature;humidity
35291;BME280;21411;50.024;19.220;2023-06-22T00:01:18;99077.34;;;20.47;100.00
35291;BME280;21411;50.024;19.220;2023-06-22T00:03:44;99067.30;;;20.39;100.00
35291;BME280;21411;50.024;19.220;2023-06-22T00:06:11;99069.31;;;20.34;100.00
35291;BME280;21411;50.024;19.220;2023-06-22T00:08:37;99068.88;;;20.33;100.00
35291;BME280;21411;50.024;19.220;2023-06-22T00:11:04;99069.14;;;20.34;100.00
35291;BME280;21411;50.024;19.220;2023-06-22T00:13:30;99068.39;;;20.34;100.00
35291;BME280;21411;50.024;19.220;2023-06-22T00:15:57;99072.16;;;20.35;100.00
35291;BME280;21411;50.024;19.220;2023-06-22T00:18:24;99075.83;;;20.37;100.00
35291;BME280;21411;50.024;19.220;2023-06-22T00:20:55;99071.64;;;20.41;100.00
35291;BME280;21411;50.024;19.220;2023-06-22T00:23:24;99071.30;;;20.45;100.00
35291;BME280;21411;50.024;19.220;2023-06-22T00:25:50;99065.29;;;20.45;100.00
35291;BME280;21411;50.024;19.220;2023-06-22T00:28:17;99067.02;;;20.44;100.00
35291;BME280;21411;50.024;19.220;2023-06-22T00:30:44;99066.50;;;20.42;100.00
35291;BME280;21411;50.024;19.220;2023-06-22T00:33:11;99066.33;;;20.40;100.00
35291;BME280;21411;50.024;19.220;2023-06-22T00:35:38;99070.11;;;20.40;100.00
35291;BME280;21411;50.024;19.220;2023-06-22T00:38:07;99067.55;;;20.41;100.00
35291;BME280;21411;50.024;19.220;2023-06-22T00:40:34;99072.82;;;20.40;100.00
35291;BME280;21411;50.024;19.220;2023-06-22T00:43:01;99072.83;;;20.40;100.00
35291;BME280;21411;50.024;19.220;2023-06-22T00:45:27;99070.20;;;20.41;100.00
35291;BME280;21411;50.024;19.220;2023-06-22T00:47:57;99066.40;;;20.43;100.00
35291;BME280;21411;50.024;19.220;2023-06-22T00:50:28;99073.14;;;20.44;100.00
35291;BME280;21411;50.024;19.220;2023-06-22T00:52:56;99081.23;;;20.44;100.00
35291;BME280;21411;50.024;19.220;2023-06-22T00:55:25;99085.66;;;20.45;100.00
35291;BME280;21411;50.024;19.220;2023-06-22T00:57:53;99083.34;;;20.47;100.00
35291;BME280;21411;50.024;19.220;2023-06-22T01:00:24;99083.06;;;20.48;100.00
35291;BME280;21411;50.024;19.220;2023-06-22T01:02:52;99083.27;;;20.49;100.00
35291;BME280;21411;50.024;19.220;2023-06-22T01:05:20;99083.92;;;20.51;100.00
35291;BME280;21411;50.024;19.220;2023-06-22T01:08:06;99078.78;;;20.52;100.00
35291;BME280;21411;50.024;19.220;2023-06-22T01:15:55;99071.10;;;20.51;100.00
35291;BME280;21411;50.024;19.220;2023-06-22T01:18:24;99073.52;;;20.51;100.00
35291;BME280;21411;50.024;19.220;2023-06-22T01:20:54;99066.31;;;20.49;100.00
35291;BME280;21411;50.024;19.220;2023-06-22T01:23:29;99062.95;;;20.46;100.00
35291;BME280;21411;50.024;19.220;2023-06-22T01:26:06;99060.60;;;20.43;100.00
35291;BME280;21411;50.024;19.220;2023-06-22T01:28:48;99063.80;;;20.40;100.00
35291;BME280;21411;50.024;19.220;2023-06-22T01:31:18;99062.60;;;20.38;100.00
35291;BME280;21411;50.024;19.220;2023-06-22T01:33:50;99058.49;;;20.36;100.00
35291;BME280;21411;50.024;19.220;2023-06-22T01:36:18;99057.30;;;20.35;100.00
35291;BME280;21411;50.024;19.220;2023-06-22T01:38:46;99057.67;;;20.35;100.00
35291;BME280;21411;50.024;19.220;2023-06-22T01:41:14;99054.70;;;20.34;100.00
35291;BME280;21411;50.024;19.220;2023-06-22T01:43:42;99057.02;;;20.33;100.00
35291;BME280;21411;50.024;19.220;2023-06-22T01:46:09;99062.86;;;20.30;100.00
35291;BME280;21411;50.024;19.220;2023-06-22T01:48:36;99068.20;;;20.28;100.00
35291;BME280;21411;50.024;19.220;2023-06-22T01:51:05;99068.91;;;20.26;100.00
35291;BME280;21411;50.024;19.220;2023-06-22T01:53:31;99074.29;;;20.25;100.00
35291;BME280;21411;50.024;19.220;2023-06-22T01:55:58;99073.02;;;20.22;100.00
35291;BME280;21411;50.024;19.220;2023-06-22T01:58:27;99077.09;;;20.17;100.00
35291;BME280;21411;50.024;19.220;2023-06-22T02:01:02;99071.84;;;20.14;100.00
35291;BME280;21411;50.024;19.220;2023-06-22T02:03:41;99064.39;;;20.12;100.00
35291;BME280;21411;50.024;19.220;2023-06-22T02:06:16;99068.70;;;20.09;100.00
35291;BME280;21411;50.024;19.220;2023-06-22T02:08:54;99073.00;;;20.06;100.00
35291;BME280;21411;50.024;19.220;2023-06-22T02:11:22;99071.85;;;20.03;100.00
35291;BME280;21411;50.024;19.220;2023-06-22T02:13:50;99069.71;;;20.02;100.00
35291;BME280;21411;50.024;19.220;2023-06-22T02:16:17;99073.85;;;20.00;100.00
35291;BME280;21411;50.024;19.220;2023-06-22T02:18:51;99081.95;;;19.97;100.00
35291;BME280;21411;50.024;19.220;2023-06-22T02:21:20;99093.13;;;19.95;100.00
35291;BME280;21411;50.024;19.220;2023-06-22T02:23:47;99093.98;;;19.93;100.00
35291;BME280;21411;50.024;19.220;2023-06-22T02:26:16;99093.83;;;19.91;100.00
35291;BME280;21411;50.024;19.220;2023-06-22T02:28:43;99093.67;;;19.88;100.00
35291;BME280;21411;50.024;19.220;2023-06-22T02:31:10;99099.56;;;19.83;100.00
35291;BME280;21411;50.024;19.220;2023-06-22T02:33:37;99102.50;;;19.79;100.00
35291;BME280;21411;50.024;19.220;2023-06-22T02:36:03;99105.88;;;19.74;100.00
35291;BME280;21411;50.024;19.220;2023-06-22T02:38:31;99104.41;;;19.71;100.00
35291;BME280;21411;50.024;19.220;2023-06-22T02:41:02;99106.17;;;19.72;100.00
35291;BME280;21411;50.024;19.220;2023-06-22T02:43:29;99108.27;;;19.72;100.00
35291;BME280;21411;50.024;19.220;2023-06-22T02:45:55;99113.05;;;19.75;100.00
35291;BME280;21411;50.024;19.220;2023-06-22T02:48:22;99114.40;;;19.78;100.00
35291;BME280;21411;50.024;19.220;2023-06-22T02:50:48;99109.48;;;19.80;100.00
35291;BME280;21411;50.024;19.220;2023-06-22T02:53:15;99112.50;;;19.82;100.00
35291;BME280;21411;50.024;19.220;2023-06-22T02:55:41;99112.89;;;19.80;100.00
35291;BME280;21411;50.024;19.220;2023-06-22T02:58:08;99112.80;;;19.77;100.00
35291;BME280;21411;50.024;19.220;2023-06-22T03:00:34;99109.47;;;19.78;100.00
35291;BME280;21411;50.024;19.220;2023-06-22T03:03:01;99109.73;;;19.79;100.00
35291;BME280;21411;50.024;19.220;2023-06-22T03:05:28;99116.77;;;19.79;100.00
35291;BME280;21411;50.024;19.220;2023-06-22T03:07:54;99114.64;;;19.79;100.00
35291;BME280;21411;50.024;19.220;2023-06-22T03:10:21;99121.95;;;19.80;100.00
35291;BME280;21411;50.024;19.220;2023-06-22T03:12:47;99121.52;;;19.82;100.00
35291;BME280;21411;50.024;19.220;2023-06-22T03:15:13;99123.51;;;19.85;100.00
35291;BME280;21411;50.024;19.220;2023-06-22T03:17:40;99126.20;;;19.89;100.00
35291;BME280;21411;50.024;19.220;2023-06-22T03:20:08;99130.52;;;19.91;100.00
35291;BME280;21411;50.024;19.220;2023-06-22T03:22:37;99134.98;;;19.93;100.00
35291;BME280;21411;50.024;19.220;2023-06-22T03:25:04;99133.11;;;19.97;100.00
35291;BME280;21411;50.024;19.220;2023-06-22T03:27:36;99136.77;;;20.02;100.00
35291;BME280;21411;50.024;19.220;2023-06-22T03:30:04;99139.16;;;20.07;100.00
35291;BME280;21411;50.024;19.220;2023-06-22T03:32:30;99141.49;;;20.12;100.00
35291;BME280;21411;50.024;19.220;2023-06-22T03:34:57;99140.12;;;20.20;100.00
35291;BME280;21411;50.024;19.220;2023-06-22T03:37:25;99141.14;;;20.29;100.00
35291;BME280;21411;50.024;19.220;2023-06-22T03:39:52;99146.21;;;20.39;100.00
35291;BME280;21411;50.024;19.220;2023-06-22T03:42:19;99148.48;;;20.50;100.00
35291;BME280;21411;50.024;19.220;2023-06-22T03:44:46;99147.29;;;20.62;100.00
35291;BME280;21411;50.024;19.220;2023-06-22T03:47:13;99148.44;;;20.81;100.00
35291;BME280;21411;50.024;19.220;2023-06-22T03:49:39;99144.19;;;20.99;100.00
35291;BME280;21411;50.024;19.220;2023-06-22T03:52:06;99141.61;;;21.08;100.00
35291;BME280;21411;50.024;19.220;2023-06-22T03:54:32;99147.84;;;21.19;100.00
35291;BME280;21411;50.024;19.220;2023-06-22T03:56:59;99147.97;;;21.29;100.00
35291;BME280;21411;50.024;19.220;2023-06-22T03:59:26;99148.00;;;21.42;100.00
35291;BME280;21411;50.024;19.220;2023-06-22T04:01:52;99143.81;;;21.54;100.00
35291;BME280;21411;50.024;19.220;2023-06-22T04:04:18;99146.84;;;21.64;100.00
35291;BME280;21411;50.024;19.220;2023-06-22T04:06:45;99144.55;;;21.73;100.00
35291;BME280;21411;50.024;19.220;2023-06-22T04:09:12;99145.84;;;21.86;100.00
35291;BME280;21411;50.024;19.220;2023-06-22T04:11:38;99147.55;;;22.43;100.00
35291;BME280;21411;50.024;19.220;2023-06-22T04:14:05;99148.77;;;23.22;100.00
35291;BME280;21411;50.024;19.220;2023-06-22T04:16:31;99152.23;;;23.85;100.00
35291;BME280;21411;50.024;19.220;2023-06-22T04:18:58;99155.93;;;23.72;100.00
35291;BME280;21411;50.024;19.220;2023-06-22T04:21:24;99161.23;;;23.48;100.00
35291;BME280;21411;50.024;19.220;2023-06-22T04:23:51;99166.33;;;23.44;100.00
35291;BME280;21411;50.024;19.220;2023-06-22T04:26:17;99163.65;;;24.11;100.00
35291;BME280;21411;50.024;19.220;2023-06-22T04:28:47;99159.98;;;24.84;100.00
35291;BME280;21411;50.024;19.220;2023-06-22T04:31:21;99158.77;;;25.42;100.00
35291;BME280;21411;50.024;19.220;2023-06-22T04:33:48;99157.59;;;25.90;100.00
35291;BME280;21411;50.024;19.220;2023-06-22T04:36:17;99155.84;;;26.43;100.00
35291;BME280;21411;50.024;19.220;2023-06-22T04:38:44;99153.38;;;26.93;98.83
35291;BME280;21411;50.024;19.220;2023-06-22T04:41:10;99158.29;;;27.32;93.46
35291;BME280;21411;50.024;19.220;2023-06-22T04:43:40;99160.57;;;27.58;89.30
35291;BME280;21411;50.024;19.220;2023-06-22T04:46:07;99166.02;;;27.77;87.28
35291;BME280;21411;50.024;19.220;2023-06-22T04:48:33;99165.83;;;28.11;85.65
35291;BME280;21411;50.024;19.220;2023-06-22T04:51:01;99170.50;;;28.27;83.86
35291;BME280;21411;50.024;19.220;2023-06-22T04:53:31;99172.11;;;27.96;82.17
35291;BME280;21411;50.024;19.220;2023-06-22T04:55:58;99173.20;;;27.50;83.74
35291;BME280;21411;50.024;19.220;2023-06-22T04:58:24;99175.77;;;27.61;82.51
35291;BME280;21411;50.024;19.220;2023-06-22T05:00:54;99172.58;;;27.82;81.42
35291;BME280;21411;50.024;19.220;2023-06-22T05:03:25;99174.19;;;27.96;80.33
35291;BME280;21411;50.024;19.220;2023-06-22T05:05:52;99183.06;;;28.27;78.88
35291;BME280;21411;50.024;19.220;2023-06-22T05:08:19;99185.33;;;28.52;77.02
35291;BME280;21411;50.024;19.220;2023-06-22T05:10:46;99184.81;;;28.69;75.78
35291;BME280;21411;50.024;19.220;2023-06-22T05:13:12;99188.95;;;28.72;75.48
35291;BME280;21411;50.024;19.220;2023-06-22T05:15:39;99191.83;;;28.94;75.12
35291;BME280;21411;50.024;19.220;2023-06-22T05:18:06;99201.95;;;29.17;73.64
35291;BME280;21411;50.024;19.220;2023-06-22T05:20:33;99201.89;;;29.28;72.30
35291;BME280;21411;50.024;19.220;2023-06-22T05:23:02;99196.77;;;29.34;71.88
35291;BME280;21411;50.024;19.220;2023-06-22T05:25:29;99194.35;;;29.63;71.26
35291;BME280;21411;50.024;19.220;2023-06-22T05:27:56;99197.31;;;29.97;70.08
35291;BME280;21411;50.024;19.220;2023-06-22T05:30:23;99200.91;;;30.17;68.62
35291;BME280;21411;50.024;19.220;2023-06-22T05:32:49;99202.09;;;30.30;67.76
35291;BME280;21411;50.024;19.220;2023-06-22T05:35:16;99205.31;;;30.51;67.24
35291;BME280;21411;50.024;19.220;2023-06-22T05:37:42;99204.55;;;30.72;66.96
35291;BME280;21411;50.024;19.220;2023-06-22T05:40:09;99209.54;;;30.65;66.61
35291;BME280;21411;50.024;19.220;2023-06-22T05:42:36;99216.59;;;30.67;66.03
35291;BME280;21411;50.024;19.220;2023-06-22T05:45:02;99214.46;;;30.89;65.24
35291;BME280;21411;50.024;19.220;2023-06-22T05:47:29;99216.98;;;31.12;64.56
35291;BME280;21411;50.024;19.220;2023-06-22T05:49:55;99219.94;;;31.27;63.65
35291;BME280;21411;50.024;19.220;2023-06-22T05:52:22;99221.55;;;31.06;63.27
35291;BME280;21411;50.024;19.220;2023-06-22T05:54:48;99225.52;;;31.09;62.61
35291;BME280;21411;50.024;19.220;2023-06-22T05:57:15;99224.73;;;31.25;62.30
35291;BME280;21411;50.024;19.220;2023-06-22T05:59:42;99229.89;;;31.17;62.26
35291;BME280;21411;50.024;19.220;2023-06-22T06:02:08;99229.66;;;31.00;62.83
35291;BME280;21411;50.024;19.220;2023-06-22T06:04:35;99230.59;;;31.05;62.54
35291;BME280;21411;50.024;19.220;2023-06-22T06:07:02;99228.63;;;31.37;61.72
35291;BME280;21411;50.024;19.220;2023-06-22T06:09:28;99226.25;;;31.63;61.29
35291;BME280;21411;50.024;19.220;2023-06-22T06:11:55;99228.27;;;31.84;60.79
35291;BME280;21411;50.024;19.220;2023-06-22T06:14:22;99232.45;;;31.94;59.41
35291;BME280;21411;50.024;19.220;2023-06-22T06:16:49;99239.09;;;31.60;59.90
35291;BME280;21411;50.024;19.220;2023-06-22T06:19:16;99234.32;;;31.35;60.89
35291;BME280;21411;50.024;19.220;2023-06-22T06:21:42;99224.72;;;31.59;60.27
35291;BME280;21411;50.024;19.220;2023-06-22T06:24:09;99217.24;;;31.95;60.19
35291;BME280;21411;50.024;19.220;2023-06-22T06:26:35;99221.13;;;32.33;59.17
35291;BME280;21411;50.024;19.220;2023-06-22T06:29:02;99228.23;;;32.35;57.98
35291;BME280;21411;50.024;19.220;2023-06-22T06:31:31;99229.98;;;32.37;58.13
35291;BME280;21411;50.024;19.220;2023-06-22T06:33:57;99227.33;;;32.51;57.69
35291;BME280;21411;50.024;19.220;2023-06-22T06:36:24;99224.38;;;32.62;57.80
35291;BME280;21411;50.024;19.220;2023-06-22T06:38:50;99226.49;;;32.52;57.14
35291;BME280;21411;50.024;19.220;2023-06-22T06:41:17;99225.45;;;32.54;56.98
35291;BME280;21411;50.024;19.220;2023-06-22T06:43:43;99225.03;;;32.48;55.77
35291;BME280;21411;50.024;19.220;2023-06-22T06:46:10;99220.27;;;32.23;55.85
35291;BME280;21411;50.024;19.220;2023-06-22T06:48:37;99214.25;;;32.13;56.20
35291;BME280;21411;50.024;19.220;2023-06-22T06:51:03;99209.61;;;32.07;56.97
35291;BME280;21411;50.024;19.220;2023-06-22T06:53:30;99209.09;;;32.08;56.48
35291;BME280;21411;50.024;19.220;2023-06-22T06:55:57;99206.31;;;32.14;56.88
35291;BME280;21411;50.024;19.220;2023-06-22T06:58:23;99211.05;;;32.22;56.67
35291;BME280;21411;50.024;19.220;2023-06-22T07:00:50;99213.92;;;32.34;56.83
35291;BME280;21411;50.024;19.220;2023-06-22T07:03:16;99209.35;;;32.44;56.34
35291;BME280;21411;50.024;19.220;2023-06-22T07:05:43;99205.64;;;32.41;55.32
35291;BME280;21411;50.024;19.220;2023-06-22T07:08:09;99205.15;;;32.15;55.27
35291;BME280;21411;50.024;19.220;2023-06-22T07:10:36;99210.29;;;31.99;55.32
35291;BME280;21411;50.024;19.220;2023-06-22T07:13:03;99209.55;;;31.90;55.86
35291;BME280;21411;50.024;19.220;2023-06-22T07:15:29;99209.31;;;32.01;56.08
35291;BME280;21411;50.024;19.220;2023-06-22T07:17:56;99210.11;;;32.15;55.65
35291;BME280;21411;50.024;19.220;2023-06-22T07:20:22;99211.98;;;32.18;55.30
35291;BME280;21411;50.024;19.220;2023-06-22T07:22:49;99210.41;;;31.96;55.78
35291;BME280;21411;50.024;19.220;2023-06-22T07:25:15;99206.75;;;32.16;55.89
35291;BME280;21411;50.024;19.220;2023-06-22T07:28:00;99204.04;;;32.18;55.08
35291;BME280;21411;50.024;19.220;2023-06-22T07:30:28;99208.86;;;32.14;55.85
35291;BME280;21411;50.024;19.220;2023-06-22T07:32:56;99211.08;;;32.48;56.08
35291;BME280;21411;50.024;19.220;2023-06-22T07:35:23;99219.08;;;32.74;55.48
35291;BME280;21411;50.024;19.220;2023-06-22T07:37:50;99220.33;;;32.71;55.30
35291;BME280;21411;50.024;19.220;2023-06-22T07:40:16;99223.67;;;32.58;55.32
35291;BME280;21411;50.024;19.220;2023-06-22T07:42:44;99224.26;;;32.39;55.08
35291;BME280;21411;50.024;19.220;2023-06-22T07:45:10;99225.46;;;32.28;55.63
35291;BME280;21411;50.024;19.220;2023-06-22T07:47:37;99226.98;;;32.29;55.41
35291;BME280;21411;50.024;19.220;2023-06-22T07:50:03;99230.86;;;32.07;54.90
35291;BME280;21411;50.024;19.220;2023-06-22T07:52:31;99234.80;;;31.79;54.94
35291;BME280;21411;50.024;19.220;2023-06-22T07:54:57;99229.67;;;31.61;55.32
35291;BME280;21411;50.024;19.220;2023-06-22T07:57:24;99230.02;;;31.66;55.69
35291;BME280;21411;50.024;19.220;2023-06-22T08:00:00;99228.20;;;31.57;55.56
35291;BME280;21411;50.024;19.220;2023-06-22T08:02:27;99234.17;;;31.44;55.52
35291;BME280;21411;50.024;19.220;2023-06-22T08:04:53;99233.78;;;31.27;55.39
35291;BME280;21411;50.024;19.220;2023-06-22T08:07:20;99236.17;;;31.02;55.49
35291;BME280;21411;50.024;19.220;2023-06-22T08:09:47;99232.95;;;30.81;56.11
35291;BME280;21411;50.024;19.220;2023-06-22T08:12:15;99233.70;;;30.61;56.72
35291;BME280;21411;50.024;19.220;2023-06-22T08:14:42;99240.80;;;30.49;57.04
35291;BME280;21411;50.024;19.220;2023-06-22T08:17:10;99242.23;;;30.58;57.38
35291;BME280;21411;50.024;19.220;2023-06-22T08:19:37;99245.47;;;30.78;56.86
35291;BME280;21411;50.024;19.220;2023-06-22T08:22:04;99245.75;;;30.80;56.37
35291;BME280;21411;50.024;19.220;2023-06-22T08:24:30;99243.61;;;30.82;56.64
35291;BME280;21411;50.024;19.220;2023-06-22T08:26:57;99243.67;;;31.08;56.90
35291;BME280;21411;50.024;19.220;2023-06-22T08:29:23;99242.33;;;31.43;56.40
35291;BME280;21411;50.024;19.220;2023-06-22T08:31:50;99246.58;;;31.49;55.47
35291;BME280;21411;50.024;19.220;2023-06-22T08:34:16;99249.77;;;31.41;54.88
35291;BME280;21411;50.024;19.220;2023-06-22T08:36:48;99246.70;;;31.45;54.95
35291;BME280;21411;50.024;19.220;2023-06-22T08:39:19;99241.00;;;31.60;54.89
35291;BME280;21411;50.024;19.220;2023-06-22T08:41:47;99246.74;;;31.55;54.45
35291;BME280;21411;50.024;19.220;2023-06-22T08:44:18;99245.08;;;31.36;54.98
35291;BME280;21411;50.024;19.220;2023-06-22T08:46:44;99248.66;;;31.24;54.72
35291;BME280;21411;50.024;19.220;2023-06-22T08:49:11;99248.71;;;31.09;54.74
35291;BME280;21411;50.024;19.220;2023-06-22T08:51:37;99248.86;;;31.09;54.63
35291;BME280;21411;50.024;19.220;2023-06-22T08:54:04;99246.38;;;31.29;54.43
35291;BME280;21411;50.024;19.220;2023-06-22T08:56:31;99249.16;;;31.34;53.60
35291;BME280;21411;50.024;19.220;2023-06-22T08:58:58;99253.62;;;31.37;53.62
35291;BME280;21411;50.024;19.220;2023-06-22T09:01:24;99254.27;;;31.56;53.43
35291;BME280;21411;50.024;19.220;2023-06-22T09:03:51;99256.60;;;31.56;52.96
35291;BME280;21411;50.024;19.220;2023-06-22T09:06:21;99257.34;;;31.76;53.32
35291;BME280;21411;50.024;19.220;2023-06-22T09:08:48;99251.33;;;31.87;53.25
35291;BME280;21411;50.024;19.220;2023-06-22T09:11:15;99249.42;;;31.76;53.16
35291;BME280;21411;50.024;19.220;2023-06-22T09:13:41;99254.20;;;31.48;52.89
35291;BME280;21411;50.024;19.220;2023-06-22T09:16:08;99247.74;;;31.37;53.42
35291;BME280;21411;50.024;19.220;2023-06-22T09:18:35;99243.33;;;31.60;54.40
35291;BME280;21411;50.024;19.220;2023-06-22T09:21:02;99241.08;;;32.04;54.15
35291;BME280;21411;50.024;19.220;2023-06-22T09:23:29;99241.85;;;32.35;53.45
35291;BME280;21411;50.024;19.220;2023-06-22T09:25:55;99239.59;;;32.54;51.83
35291;BME280;21411;50.024;19.220;2023-06-22T09:28:22;99240.57;;;32.25;50.93
35291;BME280;21411;50.024;19.220;2023-06-22T09:30:48;99236.30;;;32.06;51.46
35291;BME280;21411;50.024;19.220;2023-06-22T09:33:15;99232.67;;;32.29;52.17
35291;BME280;21411;50.024;19.220;2023-06-22T09:35:41;99226.58;;;32.48;52.69
35291;BME280;21411;50.024;19.220;2023-06-22T09:38:07;99221.08;;;32.51;52.48
35291;BME280;21411;50.024;19.220;2023-06-22T09:40:34;99220.88;;;32.40;52.64
35291;BME280;21411;50.024;19.220;2023-06-22T09:43:06;99217.80;;;32.19;52.62
35291;BME280;21411;50.024;19.220;2023-06-22T09:45:32;99218.98;;;31.72;52.38
35291;BME280;21411;50.024;19.220;2023-06-22T09:47:59;99219.41;;;31.27;53.20
35291;BME280;21411;50.024;19.220;2023-06-22T09:50:25;99222.98;;;31.10;53.74
35291;BME280;21411;50.024;19.220;2023-06-22T09:52:52;99218.77;;;31.22;54.36
35291;BME280;21411;50.024;19.220;2023-06-22T09:55:21;99213.09;;;31.49;54.41
35291;BME280;21411;50.024;19.220;2023-06-22T09:57:48;99208.10;;;31.66;54.09
35291;BME280;21411;50.024;19.220;2023-06-22T10:00:16;99201.71;;;31.79;53.28
35291;BME280;21411;50.024;19.220;2023-06-22T10:02:44;99200.01;;;31.77;53.13
35291;BME280;21411;50.024;19.220;2023-06-22T10:05:11;99200.83;;;31.90;53.57
35291;BME280;21411;50.024;19.220;2023-06-22T10:07:37;99203.82;;;32.11;52.72
35291;BME280;21411;50.024;19.220;2023-06-22T10:10:09;99208.27;;;32.13;52.29
35291;BME280;21411;50.024;19.220;2023-06-22T10:12:36;99207.31;;;32.07;51.36
35291;BME280;21411;50.024;19.220;2023-06-22T10:15:03;99198.36;;;32.05;51.47
35291;BME280;21411;50.024;19.220;2023-06-22T10:17:29;99190.62;;;31.99;51.01
35291;BME280;21411;50.024;19.220;2023-06-22T10:19:56;99193.03;;;31.93;50.68
35291;BME280;21411;50.024;19.220;2023-06-22T10:22:22;99196.03;;;32.10;50.34
35291;BME280;21411;50.024;19.220;2023-06-22T10:24:49;99198.39;;;32.10;49.65
35291;BME280;21411;50.024;19.220;2023-06-22T10:27:15;99201.62;;;32.05;48.80
35291;BME280;21411;50.024;19.220;2023-06-22T10:29:42;99197.92;;;31.90;48.45
35291;BME280;21411;50.024;19.220;2023-06-22T10:32:09;99190.31;;;31.90;49.20
35291;BME280;21411;50.024;19.220;2023-06-22T10:34:35;99187.58;;;32.12;49.47
35291;BME280;21411;50.024;19.220;2023-06-22T10:37:02;99185.14;;;32.29;48.84
35291;BME280;21411;50.024;19.220;2023-06-22T10:39:28;99183.99;;;32.28;48.57
35291;BME280;21411;50.024;19.220;2023-06-22T10:41:54;99178.02;;;32.23;48.77
35291;BME280;21411;50.024;19.220;2023-06-22T10:44:22;99176.67;;;32.31;48.94
35291;BME280;21411;50.024;19.220;2023-06-22T10:46:48;99173.88;;;32.39;48.10
35291;BME280;21411;50.024;19.220;2023-06-22T10:49:15;99173.64;;;32.26;47.63
35291;BME280;21411;50.024;19.220;2023-06-22T10:51:41;99168.73;;;32.13;47.68
35291;BME280;21411;50.024;19.220;2023-06-22T10:54:08;99169.05;;;31.84;48.04
35291;BME280;21411;50.024;19.220;2023-06-22T10:56:34;99169.33;;;31.63;48.68
35291;BME280;21411;50.024;19.220;2023-06-22T10:59:01;99172.64;;;31.43;48.60
35291;BME280;21411;50.024;19.220;2023-06-22T11:01:28;99167.69;;;31.43;49.24
35291;BME280;21411;50.024;19.220;2023-06-22T11:03:54;99158.77;;;31.70;49.58
35291;BME280;21411;50.024;19.220;2023-06-22T11:06:21;99159.04;;;31.89;48.88
35291;BME280;21411;50.024;19.220;2023-06-22T11:08:47;99157.09;;;31.94;48.32
35291;BME280;21411;50.024;19.220;2023-06-22T11:11:14;99153.98;;;31.96;48.68
35291;BME280;21411;50.024;19.220;2023-06-22T11:13:41;99147.88;;;32.12;48.93
35291;BME280;21411;50.024;19.220;2023-06-22T11:16:08;99146.84;;;32.34;48.78
35291;BME280;21411;50.024;19.220;2023-06-22T11:18:34;99145.27;;;32.54;47.99
35291;BME280;21411;50.024;19.220;2023-06-22T11:21:00;99146.84;;;32.47;46.31
35291;BME280;21411;50.024;19.220;2023-06-22T11:23:27;99148.98;;;32.29;46.64
35291;BME280;21411;50.024;19.220;2023-06-22T11:25:54;99151.76;;;32.30;46.43
35291;BME280;21411;50.024;19.220;2023-06-22T11:28:21;99148.14;;;32.28;46.30
35291;BME280;21411;50.024;19.220;2023-06-22T11:30:47;99147.11;;;32.27;46.50
35291;BME280;21411;50.024;19.220;2023-06-22T11:33:14;99150.09;;;32.22;46.92
35291;BME280;21411;50.024;19.220;2023-06-22T11:35:40;99147.88;;;32.05;47.40
35291;BME280;21411;50.024;19.220;2023-06-22T11:38:07;99152.23;;;31.96;47.46
35291;BME280;21411;50.024;19.220;2023-06-22T11:40:34;99154.04;;;32.05;46.85
35291;BME280;21411;50.024;19.220;2023-06-22T11:43:00;99146.39;;;32.10;46.31
35291;BME280;21411;50.024;19.220;2023-06-22T11:45:26;99140.02;;;32.13;46.12
35291;BME280;21411;50.024;19.220;2023-06-22T11:47:53;99135.98;;;32.15;46.00
35291;BME280;21411;50.024;19.220;2023-06-22T11:50:19;99131.15;;;32.29;46.54
35291;BME280;21411;50.024;19.220;2023-06-22T11:52:46;99134.46;;;32.57;46.56
35291;BME280;21411;50.024;19.220;2023-06-22T11:55:13;99134.98;;;32.84;45.75
35291;BME280;21411;50.024;19.220;2023-06-22T11:57:52;99133.40;;;33.01;45.39
35291;BME280;21411;50.024;19.220;2023-06-22T12:00:19;99127.77;;;33.14;44.49
35291;BME280;21411;50.024;19.220;2023-06-22T12:02:46;99121.77;;;33.15;43.73
35291;BME280;21411;50.024;19.220;2023-06-22T12:05:13;99121.40;;;33.08;43.22
35291;BME280;21411;50.024;19.220;2023-06-22T12:07:40;99119.05;;;33.03;43.23
35291;BME280;21411;50.024;19.220;2023-06-22T12:10:06;99113.48;;;33.07;42.98
35291;BME280;21411;50.024;19.220;2023-06-22T12:12:33;99113.84;;;33.06;42.00
35291;BME280;21411;50.024;19.220;2023-06-22T12:14:59;99114.97;;;32.88;41.26
35291;BME280;21411;50.024;19.220;2023-06-22T12:17:31;99107.70;;;32.64;41.03
35291;BME280;21411;50.024;19.220;2023-06-22T12:19:58;99103.77;;;32.47;40.98
35291;BME280;21411;50.024;19.220;2023-06-22T12:22:24;99099.19;;;32.43;40.35
35291;BME280;21411;50.024;19.220;2023-06-22T12:24:51;99099.09;;;32.39;40.27
35291;BME280;21411;50.024;19.220;2023-06-22T12:27:17;99096.60;;;32.41;40.44
35291;BME280;21411;50.024;19.220;2023-06-22T12:29:45;99094.81;;;32.50;40.36
35291;BME280;21411;50.024;19.220;2023-06-22T12:32:12;99091.45;;;32.56;39.93
35291;BME280;21411;50.024;19.220;2023-06-22T12:34:44;99086.58;;;32.59;40.11
35291;BME280;21411;50.024;19.220;2023-06-22T12:37:11;99086.48;;;32.62;39.93
35291;BME280;21411;50.024;19.220;2023-06-22T12:39:40;99085.44;;;32.69;39.74
35291;BME280;21411;50.024;19.220;2023-06-22T12:42:07;99080.13;;;32.71;39.51
35291;BME280;21411;50.024;19.220;2023-06-22T12:44:35;99077.67;;;32.65;39.17
35291;BME280;21411;50.024;19.220;2023-06-22T12:47:01;99074.10;;;32.63;39.36
35291;BME280;21411;50.024;19.220;2023-06-22T12:49:28;99071.52;;;32.66;39.09
35291;BME280;21411;50.024;19.220;2023-06-22T12:51:54;99071.23;;;32.60;39.16